Time;durP1;ratioP1;P1;durP2;ratioP2;P2;SDS_P1;SDS_P2;PMS_P1;PMS_P2;Temp;Humidity;BMP_temperature;BMP_pressure;BME280_temperature;BME280_humidity;BME280_pressure;Samples;Min_cycle;Max_cycle;Signal;HPM_P1;HPM_P2
2021/08/17 00:00:46;;;;;;;3.30;3.00;;;29.00;67.90;;;;;;5053270;28;20437;-37
2021/08/17 00:03:19;;;;;;;3.87;3.10;;;28.90;68.40;;;;;;5053936;28;20449;-37
2021/08/17 00:05:50;;;;;;;3.70;3.07;;;28.90;67.90;;;;;;5040452;28;20461;-38
2021/08/17 00:08:21;;;;;;;2.80;2.57;;;28.80;68.70;;;;;;5040418;28;20461;-36
2021/08/17 00:10:52;;;;;;;2.80;2.60;;;28.80;67.50;;;;;;5047682;28;20510;-37
2021/08/17 00:13:23;;;;;;;2.90;2.70;;;28.70;66.30;;;;;;5031613;28;20482;-37
2021/08/17 00:15:54;;;;;;;2.60;2.40;;;28.60;65.10;;;;;;5049961;28;20972;-38
2021/08/17 00:18:28;;;;;;;2.87;2.67;;;28.60;66.60;;;;;;5036704;28;20488;-38
2021/08/17 00:20:59;;;;;;;2.50;2.30;;;28.40;65.60;;;;;;5041107;28;20494;-37
2021/08/17 00:23:32;;;;;;;2.70;2.50;;;28.30;64.20;;;;;;5044003;28;20623;-37
2021/08/17 00:26:03;;;;;;;2.73;2.43;;;28.00;65.00;;;;;;5044034;28;20472;-41
2021/08/17 00:28:34;;;;;;;2.30;2.10;;;28.00;64.00;;;;;;5041356;28;20456;-37
2021/08/17 00:31:05;;;;;;;2.53;2.33;;;27.90;63.40;;;;;;5042945;28;20497;-38
2021/08/17 00:33:37;;;;;;;2.07;1.93;;;27.90;63.70;;;;;;5039661;28;20491;-38
2021/08/17 00:36:09;;;;;;;2.37;2.17;;;27.80;61.10;;;;;;5051144;28;20814;-37
2021/08/17 00:38:40;;;;;;;2.40;2.20;;;27.70;62.30;;;;;;5044144;28;20460;-38
2021/08/17 00:41:13;;;;;;;2.30;1.80;;;27.60;62.00;;;;;;5046497;28;20478;-39
2021/08/17 00:43:44;;;;;;;2.90;1.90;;;27.50;62.70;;;;;;5058653;28;20455;-38
2021/08/17 00:46:16;;;;;;;2.23;2.03;;;27.50;63.40;;;;;;5039562;28;20588;-37
2021/08/17 00:48:48;;;;;;;1.70;1.40;;;27.50;61.10;;;;;;5051936;28;20474;-39
2021/08/17 00:51:20;;;;;;;1.60;1.50;;;27.30;61.80;;;;;;5061399;27;20531;-38
2021/08/17 00:53:52;;;;;;;2.03;1.83;;;27.30;63.50;;;;;;5052132;28;20547;-39
2021/08/17 00:56:23;;;;;;;1.63;1.53;;;27.30;64.70;;;;;;5048601;28;20445;-39
2021/08/17 00:58:54;;;;;;;1.57;1.47;;;27.10;64.90;;;;;;5051022;27;20439;-36
2021/08/17 01:01:25;;;;;;;2.50;2.20;;;27.00;66.00;;;;;;5059251;28;20459;-38
2021/08/17 01:03:58;;;;;;;2.40;2.20;;;27.00;67.40;;;;;;5040125;28;20468;-38
2021/08/17 01:06:30;;;;;;;1.83;1.73;;;26.90;68.70;;;;;;5038897;28;20461;-37
2021/08/17 01:09:01;;;;;;;1.90;1.70;;;26.80;69.00;;;;;;5047673;28;20455;-37
2021/08/17 01:11:32;;;;;;;2.40;2.10;;;26.70;69.90;;;;;;5055914;28;20441;-36
2021/08/17 01:14:03;;;;;;;1.90;1.80;;;26.70;69.70;;;;;;5049292;28;20480;-37
2021/08/17 01:16:34;;;;;;;3.67;2.63;;;26.50;70.60;;;;;;5038865;28;20457;-38
2021/08/17 01:19:07;;;;;;;1.90;1.80;;;26.40;71.80;;;;;;5029520;28;20535;-38
2021/08/17 01:21:38;;;;;;;1.60;1.50;;;26.30;73.70;;;;;;5039800;28;20449;-37
2021/08/17 01:24:10;;;;;;;1.67;1.57;;;26.30;73.50;;;;;;5055086;28;20445;-37
2021/08/17 01:26:44;;;;;;;1.67;1.57;;;26.30;73.70;;;;;;5033006;28;20498;-39
2021/08/17 01:29:17;;;;;;;1.90;1.60;;;26.20;74.20;;;;;;5038123;28;20827;-38
2021/08/17 01:31:48;;;;;;;1.10;1.00;;;26.10;74.90;;;;;;5043440;28;20454;-38
2021/08/17 01:34:20;;;;;;;1.77;1.67;;;26.00;75.70;;;;;;5039398;28;20938;-39
2021/08/17 01:36:51;;;;;;;3.00;1.53;;;26.00;76.50;;;;;;5038380;28;20454;-38
2021/08/17 01:39:22;;;;;;;1.57;1.47;;;25.80;77.20;;;;;;5053704;28;20823;-38
2021/08/17 01:41:55;;;;;;;1.87;1.77;;;25.70;77.90;;;;;;5046303;28;20457;-38
2021/08/17 01:44:26;;;;;;;1.50;1.33;;;25.60;78.60;;;;;;5048861;27;20442;-38
2021/08/17 01:46:57;;;;;;;2.00;1.90;;;25.40;79.90;;;;;;5043994;28;20454;-39
2021/08/17 01:49:28;;;;;;;2.00;1.90;;;25.40;80.70;;;;;;5059185;28;20456;-38
2021/08/17 01:51:59;;;;;;;1.97;1.80;;;25.30;81.10;;;;;;5060276;28;20477;-38
2021/08/17 01:54:30;;;;;;;2.00;1.60;;;25.30;81.80;;;;;;5047376;28;20485;-37
2021/08/17 01:57:03;;;;;;;1.53;1.03;;;25.20;81.20;;;;;;5056761;28;20444;-38
2021/08/17 01:59:34;;;;;;;1.20;0.97;;;25.00;81.40;;;;;;5043497;28;20461;-37
2021/08/17 02:02:08;;;;;;;0.97;0.87;;;25.00;82.00;;;;;;5042861;28;20510;-37
2021/08/17 02:04:39;;;;;;;1.00;0.90;;;24.90;82.70;;;;;;5042553;28;20456;-37
2021/08/17 02:07:10;;;;;;;1.40;0.80;;;24.70;83.00;;;;;;5052470;28;20898;-37
2021/08/17 02:09:41;;;;;;;0.80;0.80;;;24.80;83.30;;;;;;5059890;28;20460;-37
2021/08/17 02:12:14;;;;;;;1.10;1.00;;;24.60;83.90;;;;;;5041323;28;20456;-38
2021/08/17 02:14:45;;;;;;;2.83;0.87;;;24.50;84.60;;;;;;5039435;28;20501;-37
2021/08/17 02:17:16;;;;;;;1.33;1.23;;;24.40;85.40;;;;;;5043972;28;20441;-38
2021/08/17 02:19:48;;;;;;;0.80;0.80;;;24.30;86.30;;;;;;5049344;28;20483;-38
2021/08/17 02:22:19;;;;;;;1.07;1.00;;;24.20;87.30;;;;;;5043050;28;20420;-38
2021/08/17 02:24:50;;;;;;;0.87;0.70;;;24.00;88.00;;;;;;5052303;28;20505;-38
2021/08/17 02:27:22;;;;;;;1.00;0.57;;;23.80;88.40;;;;;;5057429;28;20442;-38
2021/08/17 02:29:53;;;;;;;0.50;0.40;;;23.60;88.80;;;;;;5052634;28;20444;-38
2021/08/17 02:32:24;;;;;;;0.60;0.60;;;23.40;90.10;;;;;;5061825;28;20449;-39
2021/08/17 02:34:55;;;;;;;1.20;0.60;;;23.40;90.60;;;;;;5054052;28;20485;-37
2021/08/17 02:37:26;;;;;;;0.67;0.53;;;23.30;90.80;;;;;;5052666;27;20443;-38
2021/08/17 02:39:57;;;;;;;0.50;0.50;;;23.20;91.30;;;;;;5053058;28;20480;-38
2021/08/17 02:42:30;;;;;;;0.67;0.50;;;23.20;91.50;;;;;;5059447;28;20479;-38
2021/08/17 02:45:01;;;;;;;0.70;0.50;;;23.10;91.60;;;;;;5042585;28;20456;-38
2021/08/17 02:47:33;;;;;;;2.30;0.60;;;23.10;92.00;;;;;;5041587;28;20779;-36
2021/08/17 02:50:04;;;;;;;0.83;0.67;;;23.00;92.30;;;;;;5047926;28;20475;-37
2021/08/17 02:52:35;;;;;;;0.70;0.70;;;23.00;92.40;;;;;;5060151;28;20465;-36
2021/08/17 02:55:08;;;;;;;0.40;0.40;;;22.90;92.70;;;;;;5054132;28;21241;-36
2021/08/17 02:57:49;;;;;;;0.60;0.60;;;22.90;93.10;;;;;;5040170;28;20461;-37
2021/08/17 03:00:21;;;;;;;0.67;0.43;;;22.90;93.30;;;;;;5044753;28;20484;-36
2021/08/17 03:02:53;;;;;;;0.60;0.50;;;22.90;93.40;;;;;;5029567;28;20488;-38
2021/08/17 03:05:24;;;;;;;0.70;0.40;;;22.80;93.80;;;;;;5051068;28;20767;-37
2021/08/17 03:08:00;;;;;;;0.70;0.60;;;22.70;94.30;;;;;;5055120;27;20431;-38
2021/08/17 03:10:31;;;;;;;0.67;0.47;;;22.70;94.60;;;;;;5040318;28;20438;-37
2021/08/17 03:13:05;;;;;;;0.60;0.57;;;22.70;94.60;;;;;;5038902;28;20516;-37
2021/08/17 03:15:36;;;;;;;0.50;0.40;;;22.60;95.00;;;;;;5050727;27;20488;-37
2021/08/17 03:18:10;;;;;;;0.40;0.30;;;22.60;95.10;;;;;;5044747;28;20535;-37
2021/08/17 03:20:41;;;;;;;0.40;0.40;;;22.50;95.60;;;;;;5044543;28;20449;-37
2021/08/17 03:23:14;;;;;;;0.40;0.20;;;22.40;96.00;;;;;;5044311;28;20424;-37
2021/08/17 03:25:45;;;;;;;0.43;0.37;;;22.40;96.30;;;;;;5043651;28;20558;-37
2021/08/17 03:28:17;;;;;;;0.60;0.37;;;22.30;96.70;;;;;;5048318;28;20428;-37
2021/08/17 03:30:48;;;;;;;0.60;0.40;;;22.30;97.00;;;;;;5046746;28;20431;-38
2021/08/17 03:33:19;;;;;;;0.70;0.70;;;22.40;97.30;;;;;;5041451;28;20484;-37
2021/08/17 03:35:50;;;;;;;0.40;0.40;;;22.40;97.30;;;;;;5045223;28;20483;-38
2021/08/17 03:38:21;;;;;;;0.60;0.40;;;22.30;97.70;;;;;;5060746;28;20472;-38
2021/08/17 03:40:52;;;;;;;0.70;0.40;;;22.30;98.00;;;;;;5041252;28;20424;-38
2021/08/17 03:43:25;;;;;;;0.40;0.30;;;22.30;98.30;;;;;;5038052;28;20466;-37
2021/08/17 03:45:56;;;;;;;0.93;0.50;;;22.20;98.60;;;;;;5042953;28;20454;-39
2021/08/17 03:48:27;;;;;;;0.50;0.30;;;22.30;98.90;;;;;;5048466;28;20444;-39
2021/08/17 03:50:58;;;;;;;0.43;0.30;;;22.30;98.90;;;;;;5060485;28;20527;-38
2021/08/17 03:53:29;;;;;;;0.40;0.30;;;22.20;99.10;;;;;;5060092;27;20568;-38
2021/08/17 03:56:00;;;;;;;0.60;0.30;;;22.20;99.40;;;;;;5042470;28;20455;-39
2021/08/17 03:58:33;;;;;;;0.50;0.40;;;22.10;99.70;;;;;;5041232;28;20479;-38
2021/08/17 04:01:04;;;;;;;0.60;0.30;;;22.10;99.80;;;;;;5032553;28;20420;-39
2021/08/17 04:03:35;;;;;;;0.40;0.30;;;22.10;99.90;;;;;;5041611;28;20499;-39
2021/08/17 04:06:06;;;;;;;0.60;0.43;;;22.10;99.70;;;;;;5041323;28;20555;-38
2021/08/17 04:08:38;;;;;;;0.50;0.40;;;22.10;99.90;;;;;;5055061;28;21277;-38
2021/08/17 04:11:09;;;;;;;0.40;0.20;;;22.00;99.90;;;;;;5041058;28;20420;-38
2021/08/17 04:13:41;;;;;;;0.67;0.30;;;21.90;99.90;;;;;;5041426;28;20479;-38
2021/08/17 04:16:12;;;;;;;0.40;0.30;;;21.90;99.90;;;;;;5053467;28;20445;-39
2021/08/17 04:18:44;;;;;;;0.40;0.30;;;21.90;99.90;;;;;;5045927;27;20496;-39
2021/08/17 04:21:15;;;;;;;0.60;0.30;;;21.80;99.90;;;;;;5050423;28;20454;-37
2021/08/17 04:23:46;;;;;;;0.40;0.30;;;21.80;99.90;;;;;;5044170;27;20474;-37
2021/08/17 04:26:17;;;;;;;0.40;0.20;;;21.70;99.90;;;;;;5041016;28;20460;-37
2021/08/17 04:28:49;;;;;;;0.40;0.30;;;21.70;99.90;;;;;;5041904;28;20416;-37
2021/08/17 04:31:20;;;;;;;0.50;0.30;;;21.60;99.90;;;;;;5040936;28;20456;-39
2021/08/17 04:33:52;;;;;;;0.93;0.30;;;21.40;99.90;;;;;;5041109;28;20494;-37
2021/08/17 04:36:23;;;;;;;0.40;0.40;;;21.30;99.90;;;;;;5039994;28;20460;-38
2021/08/17 04:38:54;;;;;;;12.90;1.97;;;21.40;99.90;;;;;;5040787;28;20429;-38
2021/08/17 04:41:25;;;;;;;12.30;2.90;;;21.30;99.90;;;;;;5040018;28;20432;-39
2021/08/17 04:43:57;;;;;;;7.40;1.50;;;21.20;99.90;;;;;;5050057;28;20449;-38
2021/08/17 04:46:28;;;;;;;1.77;0.77;;;21.10;99.90;;;;;;5042471;28;20432;-43
2021/08/17 04:48:59;;;;;;;7.60;0.80;;;21.10;99.90;;;;;;5045795;27;20506;-43
2021/08/17 04:51:30;;;;;;;3.47;0.37;;;21.00;99.90;;;;;;5046360;28;20878;-43
2021/08/17 04:54:01;;;;;;;0.70;0.70;;;20.90;99.90;;;;;;5039447;28;20468;-40
2021/08/17 04:56:33;;;;;;;0.50;0.50;;;20.80;99.90;;;;;;5040405;28;20464;-42
2021/08/17 04:59:05;;;;;;;0.40;0.40;;;20.80;99.90;;;;;;5045360;28;20474;-41
2021/08/17 05:01:36;;;;;;;0.50;0.40;;;20.70;99.90;;;;;;5053885;28;20446;-41
2021/08/17 05:04:08;;;;;;;0.30;0.30;;;20.70;99.90;;;;;;5038817;28;20428;-41
2021/08/17 05:06:39;;;;;;;0.40;0.30;;;20.50;99.90;;;;;;5036810;28;20488;-42
2021/08/17 05:09:10;;;;;;;1.37;0.30;;;20.40;99.90;;;;;;5036810;28;20420;-42
2021/08/17 05:11:41;;;;;;;0.40;0.30;;;20.30;99.90;;;;;;5044122;28;20528;-42
2021/08/17 05:14:13;;;;;;;0.87;0.50;;;20.30;99.90;;;;;;5034618;28;20529;-42
2021/08/17 05:16:44;;;;;;;0.70;0.40;;;20.10;99.90;;;;;;5039603;28;20428;-42
2021/08/17 05:19:15;;;;;;;0.63;0.43;;;20.00;99.90;;;;;;5056212;28;20535;-42
2021/08/17 05:21:46;;;;;;;0.60;0.20;;;20.00;99.90;;;;;;5038907;28;20452;-42
2021/08/17 05:24:17;;;;;;;1.03;0.40;;;20.00;99.90;;;;;;5040215;28;20442;-42
2021/08/17 05:26:48;;;;;;;0.50;0.40;;;19.90;99.90;;;;;;5038987;28;20428;-42
2021/08/17 05:29:21;;;;;;;0.50;0.30;;;19.80;99.90;;;;;;5040931;28;20446;-42
2021/08/17 05:31:52;;;;;;;0.40;0.40;;;19.70;99.90;;;;;;5039530;28;20510;-42
2021/08/17 05:34:23;;;;;;;1.93;0.50;;;19.70;99.90;;;;;;5046060;28;20462;-42
2021/08/17 05:36:54;;;;;;;2.50;0.90;;;19.70;99.90;;;;;;5041182;28;20473;-41
2021/08/17 05:39:25;;;;;;;0.70;0.60;;;19.70;99.90;;;;;;5050498;28;20542;-41
2021/08/17 05:41:56;;;;;;;0.60;0.60;;;19.70;99.90;;;;;;5040623;28;20454;-42
2021/08/17 05:44:29;;;;;;;0.90;0.90;;;19.70;99.90;;;;;;5050417;28;20423;-42
2021/08/17 05:47:00;;;;;;;0.70;0.70;;;19.70;99.90;;;;;;5042772;28;20432;-41
2021/08/17 05:49:31;;;;;;;1.70;0.83;;;19.60;99.90;;;;;;5051194;28;20544;-41
2021/08/17 05:52:02;;;;;;;1.23;1.13;;;19.60;99.90;;;;;;5025436;28;20551;-42
2021/08/17 05:54:33;;;;;;;1.10;1.00;;;19.70;99.90;;;;;;5043440;28;20416;-42
2021/08/17 05:57:04;;;;;;;1.30;1.20;;;19.60;99.90;;;;;;5037215;28;20513;-41
2021/08/17 05:59:37;;;;;;;1.20;1.10;;;19.50;99.90;;;;;;5039389;28;20453;-42
2021/08/17 06:02:08;;;;;;;1.17;1.03;;;19.50;99.90;;;;;;5040677;28;20516;-42
2021/08/17 06:04:40;;;;;;;0.80;0.80;;;19.40;99.90;;;;;;5038435;28;20957;-41
2021/08/17 06:07:11;;;;;;;1.43;1.30;;;19.30;99.90;;;;;;5035153;28;20458;-42
2021/08/17 06:09:42;;;;;;;2.40;1.20;;;19.30;99.90;;;;;;5042334;28;20885;-42
2021/08/17 06:12:13;;;;;;;2.97;1.50;;;19.20;99.90;;;;;;5042268;28;20664;-42
2021/08/17 06:14:46;;;;;;;1.63;1.37;;;19.20;99.90;;;;;;5045083;28;20456;-43
2021/08/17 06:17:17;;;;;;;1.87;1.63;;;19.10;99.90;;;;;;5036906;28;20481;-42
2021/08/17 06:19:48;;;;;;;2.30;1.60;;;18.90;99.90;;;;;;5024075;28;20469;-42
2021/08/17 06:22:19;;;;;;;1.60;1.50;;;18.70;99.90;;;;;;5045824;28;20456;-43
2021/08/17 06:24:50;;;;;;;3.10;1.80;;;18.60;99.90;;;;;;5058984;28;20432;-41
2021/08/17 06:27:21;;;;;;;5.33;2.40;;;18.50;99.90;;;;;;5044201;28;20453;-42
2021/08/17 06:29:54;;;;;;;2.27;2.07;;;18.40;99.90;;;;;;5046867;28;20453;-42
2021/08/17 06:32:25;;;;;;;2.80;1.90;;;18.40;99.90;;;;;;5040266;28;20454;-42
2021/08/17 06:34:56;;;;;;;3.33;2.70;;;18.30;99.90;;;;;;5055089;28;20488;-42
2021/08/17 06:37:27;;;;;;;3.67;2.50;;;18.30;99.90;;;;;;5048206;28;20468;-43
2021/08/17 06:39:58;;;;;;;2.60;2.20;;;18.30;99.90;;;;;;5044485;28;20536;-42
2021/08/17 06:42:29;;;;;;;3.10;2.77;;;18.10;99.90;;;;;;5042416;28;20477;-42
2021/08/17 06:45:02;;;;;;;4.10;2.37;;;18.20;99.90;;;;;;5040459;28;20453;-43
2021/08/17 06:47:33;;;;;;;2.50;2.30;;;18.20;99.90;;;;;;5039618;28;20478;-42
2021/08/17 06:50:04;;;;;;;2.43;2.23;;;18.20;99.90;;;;;;5040294;28;20441;-42
2021/08/17 06:52:35;;;;;;;2.63;2.23;;;18.20;99.90;;;;;;5040188;28;20457;-42
2021/08/17 06:55:07;;;;;;;5.10;3.00;;;18.20;99.90;;;;;;5042812;28;20445;-42
2021/08/17 06:57:38;;;;;;;3.10;2.27;;;18.20;99.90;;;;;;5040644;28;20541;-42
2021/08/17 07:00:12;;;;;;;4.00;2.93;;;18.10;98.90;;;;;;5061249;28;20477;-42
2021/08/17 07:02:44;;;;;;;5.43;2.70;;;18.00;98.00;;;;;;5041380;28;20475;-42
2021/08/17 07:05:32;;;;;;;3.37;2.70;;;18.00;97.50;;;;;;5043037;28;20449;-41
2021/08/17 07:08:03;;;;;;;3.13;2.37;;;18.00;97.00;;;;;;5043653;28;20515;-42
2021/08/17 07:10:34;;;;;;;3.77;2.67;;;18.00;96.70;;;;;;5054387;28;20514;-42
2021/08/17 07:13:21;;;;;;;2.50;1.83;;;17.90;96.90;;;;;;5037113;28;20459;-41
2021/08/17 07:15:54;;;;;;;4.87;2.30;;;17.90;97.20;;;;;;5040486;28;20450;-42
2021/08/17 07:18:26;;;;;;;3.17;2.57;;;17.90;97.40;;;;;;5046777;28;20518;-42
2021/08/17 07:20:57;;;;;;;4.00;2.10;;;17.90;97.50;;;;;;5051247;28;20544;-42
2021/08/17 07:23:28;;;;;;;3.23;2.30;;;17.80;97.30;;;;;;5055105;28;20959;-42
2021/08/17 07:25:59;;;;;;;4.93;2.20;;;17.80;97.30;;;;;;5055025;28;20473;-42
2021/08/17 07:28:30;;;;;;;4.87;2.60;;;17.80;97.60;;;;;;5040581;28;20526;-42
2021/08/17 07:31:03;;;;;;;3.63;2.30;;;17.80;97.80;;;;;;5041850;28;20481;-42
2021/08/17 07:33:34;;;;;;;2.63;1.97;;;17.80;97.90;;;;;;5041964;28;20453;-41
2021/08/17 07:36:05;;;;;;;4.87;1.83;;;17.80;98.00;;;;;;5040708;28;20947;-42
2021/08/17 07:38:37;;;;;;;3.23;2.27;;;17.70;98.50;;;;;;5060766;28;20914;-41
2021/08/17 07:41:07;;;;;;;4.97;2.40;;;17.80;98.20;;;;;;5052427;28;20926;-42
2021/08/17 07:43:38;;;;;;;3.50;2.10;;;17.80;98.10;;;;;;5054627;28;20444;-41
2021/08/17 07:46:11;;;;;;;4.90;2.47;;;17.80;97.90;;;;;;5056074;28;20451;-42
2021/08/17 07:48:45;;;;;;;5.47;2.30;;;17.70;97.90;;;;;;5043193;28;20474;-41
2021/08/17 07:51:16;;;;;;;7.00;2.43;;;17.70;98.00;;;;;;5038539;28;20457;-42
2021/08/17 07:53:47;;;;;;;6.17;2.37;;;17.50;98.10;;;;;;5047779;28;20498;-42
2021/08/17 07:56:19;;;;;;;3.67;2.23;;;17.50;98.30;;;;;;5039757;28;20469;-42
2021/08/17 07:58:50;;;;;;;4.27;2.40;;;17.50;98.20;;;;;;5031679;28;20445;-42
2021/08/17 08:01:23;;;;;;;3.20;2.80;;;17.50;98.30;;;;;;5039536;28;20464;-42
2021/08/17 08:03:56;;;;;;;4.43;2.30;;;17.40;98.50;;;;;;5037784;28;20529;-42
2021/08/17 08:06:26;;;;;;;3.03;2.03;;;17.40;98.60;;;;;;5055377;28;20504;-41
2021/08/17 08:08:57;;;;;;;3.83;2.63;;;17.30;98.80;;;;;;5060315;28;20481;-41
2021/08/17 08:11:28;;;;;;;4.20;2.10;;;17.30;99.20;;;;;;5051626;28;20791;-42
2021/08/17 08:13:59;;;;;;;2.97;1.97;;;17.20;99.30;;;;;;5038588;28;20485;-42
2021/08/17 08:16:32;;;;;;;3.77;2.40;;;17.20;99.30;;;;;;5040657;28;20518;-42
2021/08/17 08:19:06;;;;;;;6.50;2.43;;;17.00;99.70;;;;;;5039949;28;20497;-41
2021/08/17 08:21:40;;;;;;;2.80;2.47;;;17.00;99.90;;;;;;5039387;28;20465;-42
2021/08/17 08:24:11;;;;;;;3.30;2.20;;;16.80;99.90;;;;;;5054127;28;20465;-42
2021/08/17 08:26:42;;;;;;;3.53;2.70;;;16.60;99.90;;;;;;5058387;28;20484;-42
2021/08/17 08:29:13;;;;;;;4.00;2.40;;;16.60;99.90;;;;;;5045878;28;20457;-41
2021/08/17 08:31:45;;;;;;;2.70;2.20;;;16.60;99.90;;;;;;5042370;28;20457;-42
2021/08/17 08:34:16;;;;;;;4.73;2.93;;;16.50;99.90;;;;;;5040709;28;20456;-42
2021/08/17 08:36:49;;;;;;;4.50;2.60;;;16.50;99.90;;;;;;5039207;28;20465;-42
2021/08/17 08:39:21;;;;;;;7.60;2.37;;;16.40;99.90;;;;;;5040783;28;20449;-42
2021/08/17 08:41:57;;;;;;;5.53;2.43;;;16.40;99.90;;;;;;5039906;28;20824;-42
2021/08/17 08:44:29;;;;;;;4.50;2.67;;;16.40;99.90;;;;;;5040708;28;20469;-42
2021/08/17 08:47:02;;;;;;;6.03;3.00;;;16.30;99.90;;;;;;5040308;28;20523;-41
2021/08/17 08:49:34;;;;;;;5.90;2.60;;;16.20;99.90;;;;;;5040814;28;20449;-42
2021/08/17 08:52:06;;;;;;;3.07;2.70;;;16.20;99.90;;;;;;5037618;28;20764;-42
2021/08/17 08:54:37;;;;;;;4.93;3.50;;;16.20;99.90;;;;;;5037799;28;20485;-42
2021/08/17 08:57:08;;;;;;;4.00;2.70;;;16.10;99.90;;;;;;5047961;28;20469;-42
2021/08/17 08:59:39;;;;;;;3.90;2.63;;;16.10;99.90;;;;;;5044658;28;20926;-42
2021/08/17 09:02:14;;;;;;;4.60;3.00;;;16.00;99.90;;;;;;5054349;28;20463;-42
2021/08/17 09:04:52;;;;;;;3.40;2.60;;;16.00;99.90;;;;;;5038666;28;20806;-43
2021/08/17 09:07:42;;;;;;;6.27;2.50;;;15.90;99.90;;;;;;5037562;28;20481;-42
2021/08/17 09:10:15;;;;;;;6.30;2.90;;;15.90;99.90;;;;;;5041530;28;20456;-43
2021/08/17 09:12:48;;;;;;;3.70;2.40;;;15.90;99.90;;;;;;5037006;28;20507;-42
2021/08/17 09:15:21;;;;;;;4.30;2.50;;;15.80;99.90;;;;;;5046751;28;20448;-43
2021/08/17 09:18:02;;;;;;;5.27;3.40;;;15.80;99.90;;;;;;5039329;28;20465;-42
2021/08/17 09:20:37;;;;;;;2.53;2.33;;;15.80;99.90;;;;;;5038860;28;20465;-41
2021/08/17 09:23:24;;;;;;;5.10;3.23;;;15.70;99.90;;;;;;5053905;28;20508;-41
2021/08/17 09:25:56;;;;;;;4.10;2.87;;;15.70;99.90;;;;;;5054979;28;20449;-41
2021/08/17 09:28:31;;;;;;;4.00;2.80;;;15.70;99.90;;;;;;5038459;28;20497;-41
2021/08/17 09:31:05;;;;;;;3.93;2.63;;;15.60;99.90;;;;;;5036653;28;20939;-42
2021/08/17 09:33:39;;;;;;;4.33;2.67;;;15.60;99.90;;;;;;5044815;28;20737;-42
2021/08/17 09:36:11;;;;;;;4.97;2.70;;;15.60;99.90;;;;;;5054289;28;20444;-42
2021/08/17 09:38:42;;;;;;;3.80;2.60;;;15.60;99.90;;;;;;5047324;28;20541;-43
2021/08/17 09:41:24;;;;;;;3.63;2.73;;;15.60;99.90;;;;;;5038365;28;20453;-43
2021/08/17 09:44:02;;;;;;;3.37;2.40;;;15.60;99.90;;;;;;5030077;28;20453;-42
2021/08/17 09:46:35;;;;;;;6.83;2.70;;;15.80;99.90;;;;;;5034868;28;20808;-42
2021/08/17 09:49:26;;;;;;;5.73;3.30;;;15.70;99.90;;;;;;5038258;28;20805;-42
2021/08/17 09:51:58;;;;;;;5.77;2.50;;;15.70;99.90;;;;;;5035858;28;20476;-42
2021/08/17 09:54:29;;;;;;;6.13;3.30;;;15.80;99.90;;;;;;5055314;28;20448;-41
2021/08/17 09:57:01;;;;;;;5.97;2.93;;;15.80;99.90;;;;;;5028907;28;20453;-42
2021/08/17 09:59:33;;;;;;;7.70;2.93;;;15.80;99.90;;;;;;5040923;28;20445;-43
2021/08/17 10:02:05;;;;;;;4.90;2.90;;;15.80;99.90;;;;;;5050263;28;20788;-42
2021/08/17 10:04:39;;;;;;;5.90;3.20;;;15.80;99.90;;;;;;5046067;28;20476;-42
2021/08/17 10:07:11;;;;;;;4.80;2.87;;;15.80;99.90;;;;;;5037938;28;20539;-42
2021/08/17 10:09:42;;;;;;;3.87;3.10;;;15.90;99.90;;;;;;5037944;28;20417;-42
2021/08/17 10:12:13;;;;;;;4.43;2.67;;;15.90;99.90;;;;;;5033150;28;20453;-42
2021/08/17 10:14:45;;;;;;;3.77;2.50;;;15.90;99.90;;;;;;5038694;28;20481;-41
2021/08/17 10:17:16;;;;;;;4.43;2.73;;;16.00;99.90;;;;;;5039935;28;20522;-42
2021/08/17 10:19:50;;;;;;;5.23;3.17;;;16.10;99.90;;;;;;5052474;28;20473;-42
2021/08/17 10:22:22;;;;;;;6.17;2.70;;;16.10;99.90;;;;;;5042086;28;20492;-41
2021/08/17 10:24:53;;;;;;;4.00;2.97;;;16.30;99.90;;;;;;5059477;28;20448;-42
2021/08/17 10:27:27;;;;;;;6.70;3.00;;;16.30;99.90;;;;;;5038768;28;20568;-42
2021/08/17 10:30:11;;;;;;;5.10;2.83;;;16.30;99.90;;;;;;5041814;28;20521;-43
2021/08/17 10:32:49;;;;;;;6.00;2.40;;;16.40;99.90;;;;;;5041590;28;20509;-43
2021/08/17 10:35:55;;;;;;;2.97;2.67;;;16.40;99.90;;;;;;5042514;28;20445;-42
2021/08/17 10:38:44;;;;;;;5.90;2.80;;;16.40;99.90;;;;;;5058987;28;20452;-43
2021/08/17 10:41:16;;;;;;;5.27;2.60;;;16.40;99.90;;;;;;5062002;28;20491;-41
2021/08/17 10:44:07;;;;;;;3.83;2.67;;;16.40;99.90;;;;;;5061682;28;20441;-43
2021/08/17 10:46:46;;;;;;;3.63;2.57;;;16.50;99.90;;;;;;5051786;28;20455;-42
2021/08/17 10:49:35;;;;;;;4.10;2.60;;;16.50;99.90;;;;;;5058701;28;20503;-33
2021/08/17 10:52:09;;;;;;;4.03;2.63;;;16.50;99.90;;;;;;5056627;28;20440;-43
2021/08/17 10:54:41;;;;;;;3.80;2.60;;;16.60;99.90;;;;;;5063609;28;21022;-42
2021/08/17 10:57:20;;;;;;;3.00;2.13;;;16.50;99.90;;;;;;5062641;28;20451;-45
2021/08/17 10:59:52;;;;;;;2.57;2.23;;;16.50;99.90;;;;;;5061344;28;20558;-34
2021/08/17 11:02:24;;;;;;;4.33;2.93;;;16.40;99.90;;;;;;5062943;28;20437;-39
2021/08/17 11:04:55;;;;;;;3.40;2.07;;;16.30;99.90;;;;;;5060185;28;20483;-34
2021/08/17 11:07:31;;;;;;;4.43;2.30;;;16.30;99.90;;;;;;5078461;28;20448;-45
2021/08/17 11:10:08;;;;;;;3.20;2.30;;;16.20;99.90;;;;;;5070172;28;20440;-35
2021/08/17 11:12:40;;;;;;;3.70;2.57;;;16.10;99.90;;;;;;5048417;28;20939;-33
2021/08/17 11:15:16;;;;;;;6.47;2.70;;;16.10;99.90;;;;;;5035883;28;20522;-33
2021/08/17 11:17:47;;;;;;;3.60;2.70;;;16.10;99.90;;;;;;5041019;28;20540;-33
2021/08/17 11:20:18;;;;;;;4.70;2.47;;;16.00;99.90;;;;;;5042515;28;20457;-33
2021/08/17 11:22:51;;;;;;;2.90;2.70;;;16.00;99.90;;;;;;5039947;28;20453;-34
2021/08/17 11:25:23;;;;;;;4.27;2.17;;;15.90;99.90;;;;;;5041834;28;20456;-33
2021/08/17 11:27:55;;;;;;;3.83;2.33;;;15.90;99.90;;;;;;5042050;28;20558;-33
2021/08/17 11:30:26;;;;;;;4.80;2.80;;;16.00;99.90;;;;;;5042071;28;20876;-34
2021/08/17 11:32:59;;;;;;;4.63;2.40;;;16.00;99.90;;;;;;5042264;28;20438;-34
2021/08/17 11:35:30;;;;;;;7.13;3.37;;;16.10;99.90;;;;;;5040496;28;20446;-33
2021/08/17 11:38:03;;;;;;;2.93;2.57;;;16.10;99.90;;;;;;5042160;27;20489;-33
2021/08/17 11:40:34;;;;;;;3.60;2.67;;;16.10;99.90;;;;;;5038906;28;20468;-34
2021/08/17 11:43:05;;;;;;;3.80;2.20;;;16.10;99.90;;;;;;5038155;28;20518;-33
2021/08/17 11:45:39;;;;;;;6.27;3.10;;;16.10;99.90;;;;;;5040576;28;20457;-33
2021/08/17 11:48:10;;;;;;;5.47;2.23;;;16.20;99.90;;;;;;5043433;28;20473;-33
2021/08/17 11:50:41;;;;;;;4.90;2.90;;;16.30;99.90;;;;;;5040444;28;20453;-34
2021/08/17 11:53:18;;;;;;;7.77;2.40;;;16.30;99.90;;;;;;5041707;28;20475;-33
2021/08/17 11:55:49;;;;;;;5.53;2.60;;;16.40;99.90;;;;;;5043998;28;20533;-33
2021/08/17 11:58:23;;;;;;;3.83;2.50;;;16.30;99.90;;;;;;5041847;28;20480;-33
2021/08/17 12:00:54;;;;;;;5.33;2.33;;;16.30;99.90;;;;;;5051464;28;20450;-33
2021/08/17 12:03:27;;;;;;;4.03;2.27;;;16.30;99.90;;;;;;5041278;28;20457;-33
2021/08/17 12:05:58;;;;;;;6.37;2.53;;;16.20;99.90;;;;;;5042535;27;20441;-33
2021/08/17 12:08:30;;;;;;;5.57;2.70;;;16.10;99.90;;;;;;5039030;28;20484;-34
2021/08/17 12:11:02;;;;;;;3.17;2.37;;;16.10;99.90;;;;;;5037564;28;20493;-33
2021/08/17 12:13:42;;;;;;;4.20;2.60;;;16.10;99.90;;;;;;5038309;28;20564;-33
2021/08/17 12:16:19;;;;;;;3.87;2.63;;;16.10;99.90;;;;;;5040800;28;20506;-34
2021/08/17 12:18:56;;;;;;;3.30;2.50;;;16.20;99.90;;;;;;5040365;28;20469;-34
2021/08/17 12:21:27;;;;;;;4.63;2.23;;;16.20;99.90;;;;;;5038633;28;20437;-33
2021/08/17 12:23:59;;;;;;;4.00;2.40;;;16.20;99.90;;;;;;5037720;28;20497;-33
2021/08/17 12:26:33;;;;;;;5.40;2.90;;;16.20;99.90;;;;;;5038020;28;20473;-34
2021/08/17 12:29:12;;;;;;;4.40;2.77;;;16.20;99.90;;;;;;5046663;28;20485;-33
2021/08/17 12:31:44;;;;;;;3.20;2.80;;;16.20;99.90;;;;;;5039700;28;20454;-33
2021/08/17 12:34:15;;;;;;;4.30;3.00;;;16.20;99.90;;;;;;5040512;28;20449;-33
2021/08/17 12:36:48;;;;;;;4.20;2.67;;;16.30;99.90;;;;;;5039803;28;20510;-33
2021/08/17 12:39:26;;;;;;;4.23;2.70;;;16.20;99.90;;;;;;5046942;28;20821;-33
2021/08/17 12:41:58;;;;;;;4.57;3.00;;;16.10;99.90;;;;;;5036531;28;20918;-33
2021/08/17 12:44:34;;;;;;;5.73;2.60;;;16.20;99.90;;;;;;5037320;28;20497;-33
2021/08/17 12:47:10;;;;;;;4.20;2.93;;;16.20;99.90;;;;;;5050915;28;20544;-33
2021/08/17 12:49:44;;;;;;;5.50;2.83;;;16.10;99.90;;;;;;5056687;28;21235;-33
2021/08/17 12:52:26;;;;;;;3.33;3.03;;;16.10;99.90;;;;;;5044963;28;20441;-32
2021/08/17 12:55:00;;;;;;;2.90;2.60;;;16.00;99.90;;;;;;5043962;28;20823;-33
2021/08/17 12:57:34;;;;;;;5.70;2.80;;;16.10;99.90;;;;;;5037440;28;20485;-33
2021/08/17 13:00:07;;;;;;;4.70;2.90;;;16.10;99.90;;;;;;5025933;28;20479;-33
2021/08/17 13:02:39;;;;;;;3.60;2.90;;;16.20;99.90;;;;;;5044753;27;20489;-33
2021/08/17 13:05:12;;;;;;;3.97;3.27;;;16.30;99.90;;;;;;5049416;28;20501;-33
2021/08/17 13:07:43;;;;;;;4.50;3.17;;;16.20;99.90;;;;;;5051427;28;21157;-33
2021/08/17 13:10:18;;;;;;;3.97;2.53;;;16.30;99.90;;;;;;5028985;28;21061;-34
2021/08/17 13:12:49;;;;;;;3.90;3.13;;;16.20;99.90;;;;;;5044706;28;20506;-35
2021/08/17 13:15:21;;;;;;;5.90;2.83;;;16.20;99.90;;;;;;5052562;28;20485;-34